createdAt,value
2018-11-10T00:01:27.703Z,4.37
2018-11-10T00:03:55.611Z,3.83
2018-11-10T00:06:23.458Z,4.00
2018-11-10T00:08:51.307Z,3.90
2018-11-10T00:11:19.537Z,3.77
2018-11-10T00:13:48.212Z,4.03
2018-11-10T00:16:16.836Z,3.57
2018-11-10T00:18:45.260Z,3.63
2018-11-10T00:21:13.169Z,3.57
2018-11-10T00:23:41.065Z,4.27
2018-11-10T00:26:09.676Z,5.03
2018-11-10T00:28:38.256Z,5.23
2018-11-10T00:31:06.169Z,4.07
2018-11-10T00:33:33.999Z,3.87
2018-11-10T00:36:01.840Z,3.77
2018-11-10T00:38:29.733Z,4.60
2018-11-10T00:40:57.630Z,4.27
2018-11-10T00:43:25.480Z,4.30
2018-11-10T00:45:53.357Z,4.43
2018-11-10T00:48:21.236Z,4.40
2018-11-10T00:50:49.102Z,5.13
2018-11-10T00:53:17.561Z,4.57
2018-11-10T00:55:45.436Z,4.70
2018-11-10T00:58:13.268Z,4.77
2018-11-10T01:00:41.098Z,4.43
2018-11-10T01:03:08.960Z,4.33
2018-11-10T01:05:36.861Z,4.30
2018-11-10T01:08:04.900Z,4.33
2018-11-10T01:10:32.730Z,4.37
2018-11-10T01:13:00.580Z,4.70
2018-11-10T01:15:28.926Z,4.30
2018-11-10T01:17:56.772Z,3.90
2018-11-10T01:20:24.604Z,4.13
2018-11-10T01:22:52.441Z,4.00
2018-11-10T01:25:20.604Z,3.50
2018-11-10T01:27:48.565Z,4.30
2018-11-10T01:30:17.045Z,4.27
2018-11-10T01:32:45.886Z,4.27
2018-11-10T01:35:14.519Z,4.10
2018-11-10T01:37:42.391Z,3.77
2018-11-10T01:40:11.638Z,3.70
2018-11-10T01:42:39.527Z,3.07
2018-11-10T01:45:08.711Z,3.10
2018-11-10T01:47:37.140Z,2.80
2018-11-10T01:50:05.591Z,2.63
2018-11-10T01:52:33.425Z,2.37
2018-11-10T01:55:01.253Z,2.20
2018-11-10T01:57:29.128Z,2.40
2018-11-10T01:59:57.526Z,2.10
2018-11-10T02:02:25.766Z,2.53
2018-11-10T02:04:54.241Z,2.10
2018-11-10T02:07:22.132Z,2.27
2018-11-10T02:09:49.954Z,2.33
2018-11-10T02:12:18.219Z,2.03
2018-11-10T02:14:46.059Z,2.07
2018-11-10T02:17:13.876Z,1.90
2018-11-10T02:19:41.905Z,2.10
2018-11-10T02:22:09.743Z,1.70
2018-11-10T02:24:37.589Z,1.50
2018-11-10T02:27:09.787Z,1.70
2018-11-10T02:29:37.919Z,1.67
2018-11-10T02:32:06.491Z,1.60
2018-11-10T02:34:35.126Z,1.63
2018-11-10T02:37:02.950Z,1.67
2018-11-10T02:39:30.791Z,1.40
2018-11-10T02:41:58.618Z,1.80
2018-11-10T02:44:26.464Z,1.60
2018-11-10T02:46:55.040Z,1.80
2018-11-10T02:49:23.172Z,1.33
2018-11-10T02:51:51.804Z,1.30
2018-11-10T02:54:20.084Z,1.10
2018-11-10T02:56:47.898Z,1.13
2018-11-10T02:59:15.719Z,1.53
2018-11-10T03:01:43.764Z,1.50
2018-11-10T03:04:12.035Z,1.20
2018-11-10T03:06:39.864Z,1.03
2018-11-10T03:09:08.236Z,0.90
2018-11-10T03:11:36.069Z,1.43
2018-11-10T03:14:04.749Z,1.30
2018-11-10T03:16:32.698Z,1.40
2018-11-10T03:19:00.634Z,1.40
2018-11-10T03:21:29.188Z,1.10
2018-11-10T03:23:57.214Z,1.40
2018-11-10T03:26:25.711Z,1.20
2018-11-10T03:28:54.308Z,1.03
2018-11-10T03:31:22.354Z,1.27
2018-11-10T03:33:50.220Z,1.00
2018-11-10T03:36:18.848Z,1.50
2018-11-10T03:38:46.679Z,1.10
2018-11-10T03:41:15.134Z,1.07
2018-11-10T03:43:43.348Z,0.90
2018-11-10T03:46:11.825Z,1.10
2018-11-10T03:48:40.462Z,0.90
2018-11-10T03:51:09.093Z,1.20
2018-11-10T03:53:36.911Z,0.90
2018-11-10T03:56:04.746Z,1.30
2018-11-10T03:58:32.575Z,1.63
2018-11-10T04:01:00.436Z,1.30
2018-11-10T04:03:28.252Z,4.10
2018-11-10T04:05:56.392Z,0.83
2018-11-10T04:08:24.228Z,1.00
2018-11-10T04:10:52.052Z,1.10
2018-11-10T04:13:19.871Z,1.00
2018-11-10T04:15:47.704Z,1.00
2018-11-10T04:18:15.521Z,1.30
2018-11-10T04:20:43.458Z,1.07
2018-11-10T04:23:11.937Z,1.40
2018-11-10T04:25:39.767Z,0.93
2018-11-10T04:28:07.583Z,1.10
2018-11-10T04:30:35.423Z,1.20
2018-11-10T04:33:03.265Z,1.20
2018-11-10T04:35:31.127Z,1.07
2018-11-10T04:37:59.098Z,1.00
2018-11-10T04:40:26.923Z,1.00
2018-11-10T04:42:54.735Z,0.83
2018-11-10T04:45:22.563Z,1.30
2018-11-10T04:47:50.407Z,1.10
2018-11-10T04:50:18.228Z,0.90
2018-11-10T04:52:46.048Z,0.83
2018-11-10T04:55:14.346Z,1.10
2018-11-10T04:57:42.601Z,1.20
2018-11-10T05:00:12.723Z,0.83
2018-11-10T05:02:41.443Z,1.00
2018-11-10T05:05:09.250Z,1.27
2018-11-10T05:07:37.343Z,0.90
2018-11-10T05:10:05.895Z,1.37
2018-11-10T05:12:34.206Z,1.00
2018-11-10T05:15:02.453Z,1.10
2018-11-10T05:17:30.277Z,0.80
2018-11-10T05:19:58.150Z,1.33
2018-11-10T05:22:26.591Z,1.10
2018-11-10T05:24:54.423Z,1.00
2018-11-10T05:27:22.239Z,0.97
2018-11-10T05:29:50.056Z,1.03
2018-11-10T05:32:17.872Z,1.03
2018-11-10T05:34:45.699Z,1.17
2018-11-10T05:37:13.516Z,1.47
2018-11-10T05:39:41.979Z,1.13
2018-11-10T05:42:09.855Z,1.17
2018-11-10T05:44:37.688Z,1.10
2018-11-10T05:47:06.111Z,0.90
2018-11-10T05:49:34.757Z,1.20
2018-11-10T05:52:03.199Z,1.10
2018-11-10T05:54:31.835Z,1.00
2018-11-10T05:57:00.236Z,1.17
2018-11-10T05:59:28.530Z,1.00
2018-11-10T06:01:57.153Z,1.00
2018-11-10T06:04:24.988Z,0.83
2018-11-10T06:06:52.919Z,1.57
2018-11-10T06:09:20.905Z,0.90
2018-11-10T06:11:48.638Z,0.80
2018-11-10T06:14:16.504Z,1.17
2018-11-10T06:16:45.191Z,0.90
2018-11-10T06:19:13.673Z,1.00
2018-11-10T06:21:42.100Z,1.17
2018-11-10T06:24:09.938Z,1.07
2018-11-10T06:26:38.393Z,1.20
2018-11-10T06:29:07.044Z,0.80
2018-11-10T06:31:35.682Z,1.17
2018-11-10T06:34:04.305Z,1.33
2018-11-10T06:36:32.725Z,1.00
2018-11-10T06:39:01.192Z,0.90
2018-11-10T06:41:29.128Z,1.27
2018-11-10T06:43:57.087Z,1.40
2018-11-10T06:46:25.053Z,0.93
2018-11-10T06:48:52.880Z,1.10
2018-11-10T06:51:21.446Z,1.00
2018-11-10T06:53:50.088Z,0.90
2018-11-10T06:56:17.914Z,0.80
2018-11-10T06:58:46.542Z,1.10
2018-11-10T07:01:14.979Z,0.90
2018-11-10T07:03:43.625Z,1.00
2018-11-10T07:06:11.447Z,0.90
2018-11-10T07:08:39.924Z,0.90
2018-11-10T07:11:07.753Z,1.20
2018-11-10T07:13:35.578Z,0.70
2018-11-10T07:16:03.416Z,1.00
2018-11-10T07:18:31.627Z,1.00
2018-11-10T07:20:59.469Z,0.90
2018-11-10T07:23:27.287Z,1.10
2018-11-10T07:25:55.849Z,1.07
2018-11-10T07:28:24.489Z,1.10
2018-11-10T07:30:52.411Z,1.00
2018-11-10T07:33:20.959Z,1.13
2018-11-10T07:35:49.445Z,1.30
2018-11-10T07:38:17.292Z,1.00
2018-11-10T07:40:45.139Z,1.00
2018-11-10T07:43:13.143Z,1.13
2018-11-10T07:45:41.599Z,0.67
2018-11-10T07:48:09.417Z,1.13
2018-11-10T07:50:37.923Z,0.90
2018-11-10T07:53:06.310Z,0.87
2018-11-10T07:55:34.796Z,1.10
2018-11-10T07:58:02.877Z,0.80
2018-11-10T08:00:30.711Z,1.70
2018-11-10T08:02:58.547Z,0.90
2018-11-10T08:05:26.362Z,1.40
2018-11-10T08:07:54.796Z,1.60
2018-11-10T08:10:23.435Z,0.87
2018-11-10T08:12:51.253Z,0.87
2018-11-10T08:15:19.500Z,0.90
2018-11-10T08:17:47.979Z,1.20
2018-11-10T08:20:16.631Z,1.37
2018-11-10T08:22:44.617Z,0.97
2018-11-10T08:25:14.132Z,0.67
2018-11-10T08:27:42.710Z,4.07
2018-11-10T08:30:12.456Z,1.83
2018-11-10T08:32:41.050Z,0.77
2018-11-10T08:35:10.279Z,1.30
2018-11-10T08:37:38.227Z,1.20
2018-11-10T08:40:07.138Z,1.30
2018-11-10T08:42:35.715Z,1.00
2018-11-10T08:45:04.352Z,1.53
2018-11-10T08:47:32.991Z,1.33
2018-11-10T08:50:01.648Z,1.50
2018-11-10T08:52:30.066Z,1.70
2018-11-10T08:54:59.117Z,1.13
2018-11-10T08:57:27.751Z,1.20
2018-11-10T08:59:56.164Z,1.10
2018-11-10T09:02:23.985Z,0.97
2018-11-10T09:04:52.724Z,1.13
2018-11-10T09:07:21.105Z,1.20
2018-11-10T09:09:49.274Z,1.27
2018-11-10T09:12:17.780Z,1.37
2018-11-10T09:14:46.221Z,1.33
2018-11-10T09:17:14.039Z,1.50
2018-11-10T09:19:41.856Z,1.30
2018-11-10T09:22:10.480Z,1.30
2018-11-10T09:24:38.340Z,1.60
2018-11-10T09:27:06.283Z,1.43
2018-11-10T09:29:34.811Z,1.40
2018-11-10T09:32:02.656Z,1.77
2018-11-10T09:34:30.496Z,1.67
2018-11-10T09:36:59.595Z,1.60
2018-11-10T09:39:28.078Z,1.67
2018-11-10T09:41:56.756Z,1.70
2018-11-10T09:44:24.670Z,1.33
2018-11-10T09:46:52.969Z,1.73
2018-11-10T09:49:21.446Z,2.60
2018-11-10T09:51:49.278Z,2.40
2018-11-10T09:54:17.733Z,1.90
2018-11-10T09:56:47.512Z,1.70
2018-11-10T09:59:16.181Z,1.57
2018-11-10T10:01:44.948Z,3.00
2018-11-10T10:04:13.449Z,2.20
2018-11-10T10:06:41.725Z,1.97
2018-11-10T10:09:10.724Z,2.00
2018-11-10T10:11:39.941Z,1.93
2018-11-10T10:14:08.677Z,1.47
2018-11-10T10:16:36.554Z,2.10
2018-11-10T10:19:04.450Z,1.67
2018-11-10T10:21:33.415Z,1.50
2018-11-10T10:24:01.262Z,1.73
2018-11-10T10:26:30.052Z,1.97
2018-11-10T10:28:57.902Z,1.90
2018-11-10T10:31:26.550Z,2.30
2018-11-10T10:33:54.449Z,2.00
2018-11-10T10:36:22.280Z,2.33
2018-11-10T10:38:50.801Z,2.13
2018-11-10T10:41:18.641Z,2.40
2018-11-10T10:43:47.733Z,1.97
2018-11-10T10:46:15.634Z,2.00
2018-11-10T10:48:43.854Z,1.80
2018-11-10T10:51:13.792Z,1.73
2018-11-10T10:53:41.615Z,1.60
2018-11-10T10:56:09.558Z,2.00
2018-11-10T10:58:37.408Z,1.70
2018-11-10T11:01:11.377Z,1.73
2018-11-10T11:03:44.554Z,1.70
2018-11-10T11:06:12.416Z,1.70
2018-11-10T11:08:40.338Z,1.53
2018-11-10T11:11:08.173Z,1.33
2018-11-10T11:13:36.442Z,2.27
2018-11-10T11:18:39.143Z,1.50
2018-11-10T11:21:06.998Z,1.77
2018-11-10T11:23:34.901Z,1.60
2018-11-10T11:26:02.732Z,1.50
2018-11-10T11:28:31.817Z,1.43
2018-11-10T11:30:59.713Z,1.50
2018-11-10T11:33:27.660Z,1.30
2018-11-10T11:35:55.749Z,1.40
2018-11-10T11:38:24.401Z,1.33
2018-11-10T11:40:52.303Z,1.50
2018-11-10T11:43:22.254Z,1.30
2018-11-10T11:45:50.453Z,1.20
2018-11-10T11:48:18.342Z,1.43
2018-11-10T11:50:46.632Z,1.27
2018-11-10T11:53:14.533Z,1.30
2018-11-10T11:55:42.389Z,1.37
2018-11-10T11:58:10.585Z,0.90
2018-11-10T12:00:38.368Z,0.90
2018-11-10T12:03:06.267Z,0.97
2018-11-10T12:05:34.099Z,1.10
2018-11-10T12:08:02.301Z,1.20
2018-11-10T12:10:30.520Z,1.00
2018-11-10T12:12:58.410Z,1.30
2018-11-10T12:15:26.292Z,0.77
2018-11-10T12:17:54.114Z,1.10
2018-11-10T12:20:21.948Z,1.00
2018-11-10T12:22:49.756Z,1.10
2018-11-10T12:25:17.589Z,1.00
2018-11-10T12:27:45.402Z,1.30
2018-11-10T12:30:13.567Z,0.80
2018-11-10T12:32:41.794Z,0.80
2018-11-10T12:35:10.820Z,0.70
2018-11-10T12:37:38.655Z,0.70
2018-11-10T12:40:08.139Z,0.87
2018-11-10T12:42:36.237Z,0.63
2018-11-10T12:45:04.263Z,0.70
2018-11-10T12:47:32.261Z,0.80
2018-11-10T12:50:00.039Z,0.63
2018-11-10T12:52:27.858Z,0.60
2018-11-10T12:54:55.754Z,0.87
2018-11-10T12:57:23.940Z,0.87
2018-11-10T12:59:51.876Z,0.40
2018-11-10T13:02:20.106Z,0.40
2018-11-10T13:04:47.999Z,0.80
2018-11-10T13:07:15.873Z,0.70
2018-11-10T13:09:43.698Z,0.60
2018-11-10T13:12:11.829Z,0.63
2018-11-10T13:14:39.632Z,0.80
2018-11-10T13:17:07.519Z,0.67
2018-11-10T13:19:35.376Z,0.50
2018-11-10T13:22:03.256Z,0.77
2018-11-10T13:24:31.157Z,0.77
2018-11-10T13:26:58.980Z,0.70
2018-11-10T13:29:26.920Z,0.60
2018-11-10T13:31:54.849Z,0.80
2018-11-10T13:34:22.808Z,0.80
2018-11-10T13:36:50.961Z,0.70
2018-11-10T13:39:19.234Z,0.70
2018-11-10T13:41:47.095Z,0.80
2018-11-10T13:44:15.427Z,0.53
2018-11-10T13:46:43.276Z,0.73
2018-11-10T13:49:11.295Z,0.60
2018-11-10T13:51:39.323Z,0.80
2018-11-10T13:54:07.119Z,0.47
2018-11-10T13:56:34.970Z,0.60
2018-11-10T13:59:03.049Z,0.70
2018-11-10T14:01:30.888Z,0.90
2018-11-10T14:03:58.733Z,0.67
2018-11-10T14:06:26.670Z,0.47
2018-11-10T14:08:54.514Z,0.60
2018-11-10T14:11:22.383Z,0.40
2018-11-10T14:13:50.213Z,0.87
2018-11-10T14:16:18.428Z,0.70
2018-11-10T14:18:46.267Z,0.80
2018-11-10T14:21:14.187Z,0.70
2018-11-10T14:23:42.049Z,0.60
2018-11-10T14:26:09.995Z,0.87
2018-11-10T14:28:37.835Z,0.90
2018-11-10T14:31:05.707Z,0.73
2018-11-10T14:33:33.527Z,0.87
2018-11-10T14:36:01.399Z,1.40
2018-11-10T14:38:29.225Z,0.93
2018-11-10T14:40:57.195Z,0.97
2018-11-10T14:43:25.053Z,0.87
2018-11-10T14:45:52.948Z,0.90
2018-11-10T14:48:20.820Z,1.10
2018-11-10T14:50:48.739Z,1.10
2018-11-10T14:53:16.783Z,0.97
2018-11-10T14:55:44.706Z,1.50
2018-11-10T14:58:12.532Z,0.83
2018-11-10T15:00:41.056Z,1.20
2018-11-10T15:03:08.979Z,0.90
2018-11-10T15:05:36.851Z,0.80
2018-11-10T15:08:04.979Z,0.93
2018-11-10T15:10:32.815Z,1.07
2018-11-10T15:13:00.736Z,0.90
2018-11-10T15:15:28.571Z,1.00
2018-11-10T15:17:56.753Z,1.17
2018-11-10T15:20:24.738Z,0.90
2018-11-10T15:22:52.596Z,0.83
2018-11-10T15:25:21.469Z,0.90
2018-11-10T15:27:49.367Z,1.00
2018-11-10T15:30:18.507Z,0.73
2018-11-10T15:32:47.050Z,0.70
2018-11-10T15:35:16.091Z,0.90
2018-11-10T15:37:45.337Z,0.67
2018-11-10T15:40:14.015Z,0.90
2018-11-10T15:42:41.943Z,0.70
2018-11-10T15:45:11.280Z,0.80
2018-11-10T15:47:39.452Z,0.90
2018-11-10T15:50:08.083Z,0.70
2018-11-10T15:52:36.354Z,0.60
2018-11-10T15:55:04.909Z,0.50
2018-11-10T15:57:32.751Z,1.40
2018-11-10T16:00:00.583Z,0.70
2018-11-10T16:02:28.452Z,0.80
2018-11-10T16:04:56.318Z,0.70
2018-11-10T16:07:24.273Z,0.50
2018-11-10T16:09:52.116Z,0.63
2018-11-10T16:12:19.958Z,0.70
2018-11-10T16:14:47.783Z,0.80
2018-11-10T16:17:15.620Z,0.80
2018-11-10T16:19:43.469Z,1.03
2018-11-10T16:22:11.320Z,0.80
2018-11-10T16:24:39.233Z,0.93
2018-11-10T16:27:07.062Z,0.70
2018-11-10T16:29:34.887Z,0.93
2018-11-10T16:32:02.748Z,0.40
2018-11-10T16:34:30.611Z,0.60
2018-11-10T16:36:58.600Z,0.70
2018-11-10T16:39:26.456Z,0.67
2018-11-10T16:41:54.398Z,0.60
2018-11-10T16:44:22.225Z,0.63
2018-11-10T16:46:50.046Z,0.67
2018-11-10T16:49:17.880Z,0.60
2018-11-10T16:51:45.745Z,0.90
2018-11-10T16:54:13.569Z,0.70
2018-11-10T16:56:41.461Z,0.77
2018-11-10T16:59:09.827Z,0.60
2018-11-10T17:01:37.707Z,0.80
2018-11-10T17:04:05.820Z,1.30
2018-11-10T17:06:33.822Z,0.90
2018-11-10T17:09:01.648Z,0.90
2018-11-10T17:11:29.517Z,0.90
2018-11-10T17:13:57.380Z,0.87
2018-11-10T17:16:25.219Z,0.80
2018-11-10T17:18:53.070Z,1.17
2018-11-10T17:21:20.943Z,0.77
2018-11-10T17:23:48.760Z,0.60
2018-11-10T17:26:16.616Z,0.40
2018-11-10T17:28:44.507Z,0.50
2018-11-10T17:31:12.332Z,0.60
2018-11-10T17:33:40.160Z,0.70
2018-11-10T17:36:07.991Z,0.77
2018-11-10T17:38:35.820Z,0.80
2018-11-10T17:41:03.715Z,0.90
2018-11-10T17:43:31.571Z,0.70
2018-11-10T17:45:59.388Z,0.60
2018-11-10T17:48:27.404Z,0.70
2018-11-10T17:50:55.252Z,0.90
2018-11-10T17:53:23.067Z,0.80
2018-11-10T17:55:50.889Z,1.30
2018-11-10T17:58:18.731Z,0.97
2018-11-10T18:00:47.124Z,1.13
2018-11-10T18:03:15.000Z,0.70
2018-11-10T18:05:42.840Z,0.87
2018-11-10T18:08:10.691Z,0.90
2018-11-10T18:10:38.534Z,0.70
2018-11-10T18:13:06.469Z,0.60
2018-11-10T18:15:34.230Z,1.13
2018-11-10T18:18:02.071Z,0.70
2018-11-10T18:20:29.907Z,0.93
2018-11-10T18:22:57.724Z,0.83
2018-11-10T18:25:25.721Z,0.90
2018-11-10T18:27:53.553Z,0.73
2018-11-10T18:30:21.636Z,0.77
2018-11-10T18:32:49.538Z,0.90
2018-11-10T18:35:17.487Z,0.77
2018-11-10T18:37:45.333Z,0.80
2018-11-10T18:40:13.593Z,0.90
2018-11-10T18:42:41.583Z,0.80
2018-11-10T18:45:10.367Z,0.97
2018-11-10T18:47:38.795Z,0.80
2018-11-10T18:50:07.875Z,0.70
2018-11-10T18:52:36.294Z,0.80
2018-11-10T18:55:04.401Z,0.77
2018-11-10T18:57:32.538Z,0.80
2018-11-10T19:00:00.439Z,1.03
2018-11-10T19:02:28.459Z,1.63
2018-11-10T19:04:56.440Z,1.40
2018-11-10T19:07:24.472Z,1.10
2018-11-10T19:09:52.392Z,0.80
2018-11-10T19:12:20.382Z,0.87
2018-11-10T19:14:48.478Z,0.70
2018-11-10T19:17:16.306Z,1.10
2018-11-10T19:19:44.239Z,1.03
2018-11-10T19:22:12.106Z,0.70
2018-11-10T19:24:39.966Z,0.60
2018-11-10T19:27:07.819Z,0.90
2018-11-10T19:29:35.947Z,0.70
2018-11-10T19:32:03.996Z,0.70
2018-11-10T19:34:31.808Z,0.70
2018-11-10T19:36:59.708Z,0.90
2018-11-10T19:39:27.588Z,0.83
2018-11-10T19:41:55.528Z,1.30
2018-11-10T19:44:23.400Z,0.63
2018-11-10T19:46:51.307Z,0.60
2018-11-10T19:49:19.250Z,0.87
2018-11-10T19:51:47.321Z,1.10
2018-11-10T19:54:14.969Z,0.90
2018-11-10T19:56:42.891Z,0.77
2018-11-10T19:59:10.726Z,0.80
2018-11-10T20:01:38.563Z,1.00
2018-11-10T20:04:06.458Z,1.20
2018-11-10T20:06:34.365Z,1.03
2018-11-10T20:09:02.548Z,0.60
2018-11-10T20:11:30.402Z,1.43
2018-11-10T20:13:58.334Z,1.20
2018-11-10T20:16:26.091Z,0.83
2018-11-10T20:18:54.023Z,0.63
2018-11-10T20:21:21.838Z,1.00
2018-11-10T20:23:49.680Z,0.87
2018-11-10T20:26:17.518Z,1.10
2018-11-10T20:28:45.379Z,0.60
2018-11-10T20:31:13.207Z,0.70
2018-11-10T20:33:41.035Z,1.00
2018-11-10T20:36:08.880Z,1.10
2018-11-10T20:38:36.710Z,1.37
2018-11-10T20:41:05.051Z,1.70
2018-11-10T20:43:32.887Z,1.30
2018-11-10T20:46:00.759Z,1.20
2018-11-10T20:48:28.611Z,0.90
2018-11-10T20:50:56.466Z,0.67
2018-11-10T20:53:24.318Z,0.70
2018-11-10T20:55:52.135Z,1.00
2018-11-10T20:58:20.309Z,0.60
2018-11-10T21:00:49.168Z,0.90
2018-11-10T21:03:17.009Z,0.63
2018-11-10T21:05:44.855Z,0.80
2018-11-10T21:08:12.766Z,1.03
2018-11-10T21:10:40.811Z,0.70
2018-11-10T21:13:08.717Z,0.70
2018-11-10T21:15:36.561Z,0.80
2018-11-10T21:18:04.491Z,1.10
2018-11-10T21:20:32.444Z,1.00
2018-11-10T21:23:00.475Z,0.80
2018-11-10T21:25:28.680Z,0.83
2018-11-10T21:27:57.105Z,0.73
2018-11-10T21:30:24.932Z,0.90
2018-11-10T21:32:52.848Z,0.70
2018-11-10T21:35:20.943Z,1.00
2018-11-10T21:37:48.733Z,0.63
2018-11-10T21:40:18.036Z,1.30
2018-11-10T21:42:45.946Z,0.77
2018-11-10T21:45:14.775Z,0.80
2018-11-10T21:47:42.687Z,0.60
2018-11-10T21:50:12.985Z,0.53
2018-11-10T21:52:41.663Z,1.20
2018-11-10T21:55:10.541Z,1.00
2018-11-10T21:57:38.423Z,0.63
2018-11-10T22:00:08.360Z,0.80
2018-11-10T22:02:36.424Z,0.80
2018-11-10T22:05:04.702Z,0.63
2018-11-10T22:07:32.537Z,0.77
2018-11-10T22:10:00.411Z,0.90
2018-11-10T22:12:28.261Z,1.00
2018-11-10T22:14:56.240Z,0.77
2018-11-10T22:17:24.669Z,1.00
2018-11-10T22:19:52.494Z,0.97
2018-11-10T22:22:20.333Z,0.77
2018-11-10T22:24:48.162Z,1.20
2018-11-10T22:27:16.021Z,0.90
2018-11-10T22:29:43.840Z,0.60
2018-11-10T22:32:11.664Z,0.73
2018-11-10T22:34:39.503Z,0.80
2018-11-10T22:37:07.326Z,0.80
2018-11-10T22:39:35.144Z,0.77
2018-11-10T22:42:02.993Z,0.90
2018-11-10T22:44:30.820Z,1.20
2018-11-10T22:46:58.756Z,0.97
2018-11-10T22:49:26.635Z,1.00
2018-11-10T22:51:54.475Z,0.80
2018-11-10T22:54:22.330Z,0.70
2018-11-10T22:56:50.191Z,0.80
2018-11-10T22:59:18.036Z,0.80
2018-11-10T23:01:45.862Z,0.70
2018-11-10T23:04:13.712Z,1.00
2018-11-10T23:06:41.548Z,0.90
2018-11-10T23:09:09.842Z,1.50
2018-11-10T23:11:37.691Z,0.70
2018-11-10T23:14:05.542Z,0.83
2018-11-10T23:16:33.400Z,0.77
2018-11-10T23:19:01.233Z,0.60
2018-11-10T23:21:29.127Z,0.60
2018-11-10T23:23:56.954Z,1.00
2018-11-10T23:26:24.787Z,0.70
2018-11-10T23:28:52.614Z,0.80
2018-11-10T23:31:20.437Z,0.53
2018-11-10T23:33:48.284Z,0.60
2018-11-10T23:36:16.114Z,0.80
2018-11-10T23:38:43.952Z,0.70
2018-11-10T23:41:11.779Z,0.73
2018-11-10T23:43:39.630Z,0.70
2018-11-10T23:46:08.015Z,0.80
2018-11-10T23:48:35.923Z,0.67
2018-11-10T23:51:03.821Z,0.80
2018-11-10T23:53:31.731Z,0.50
2018-11-10T23:55:59.572Z,0.83
2018-11-10T23:58:27.396Z,1.00
